createdAt,value
2018-06-17T00:01:01.643Z,68.60
2018-06-17T00:05:04.974Z,67.90
2018-06-17T00:09:09.015Z,68.10
2018-06-17T00:13:12.365Z,70.80
2018-06-17T00:17:15.725Z,69.60
2018-06-17T00:21:19.055Z,70.00
2018-06-17T00:25:22.390Z,69.10
2018-06-17T00:29:25.731Z,69.50
2018-06-17T00:33:29.066Z,70.90
2018-06-17T00:37:32.431Z,69.10
2018-06-17T00:41:35.857Z,68.50
2018-06-17T00:45:39.174Z,70.00
2018-06-17T00:49:42.521Z,70.70
2018-06-17T00:53:45.830Z,68.70
2018-06-17T00:57:51.428Z,69.00
2018-06-17T01:01:54.842Z,69.20
2018-06-17T01:05:58.226Z,69.20
2018-06-17T01:10:01.633Z,70.80
2018-06-17T01:14:04.951Z,74.50
2018-06-17T01:18:08.294Z,71.20
2018-06-17T01:22:11.644Z,70.70
2018-06-17T01:26:15.004Z,70.90
2018-06-17T01:30:18.332Z,69.90
2018-06-17T01:34:21.646Z,69.20
2018-06-17T01:38:24.980Z,70.00
2018-06-17T01:42:28.359Z,72.10
2018-06-17T01:46:31.694Z,70.00
2018-06-17T01:50:35.024Z,71.10
2018-06-17T01:54:38.335Z,72.50
2018-06-17T01:58:41.696Z,69.80
2018-06-17T02:02:45.032Z,69.70
2018-06-17T02:06:53.760Z,69.70
2018-06-17T02:11:02.468Z,71.80
2018-06-17T02:15:05.824Z,70.80
2018-06-17T02:19:09.198Z,70.00
2018-06-17T02:23:13.415Z,70.80
2018-06-17T02:27:16.770Z,71.60
2018-06-17T02:31:20.144Z,71.40
2018-06-17T02:35:23.450Z,70.90
2018-06-17T02:39:26.796Z,70.60
2018-06-17T02:43:30.259Z,70.40
2018-06-17T02:47:39.041Z,71.50
2018-06-17T02:51:47.892Z,76.70
2018-06-17T02:55:51.217Z,71.80
2018-06-17T02:59:54.662Z,72.50
2018-06-17T03:03:58.106Z,71.90
2018-06-17T03:08:01.333Z,74.40
2018-06-17T03:12:04.708Z,72.30
2018-06-17T03:16:08.043Z,75.90
2018-06-17T03:20:11.505Z,78.70
2018-06-17T03:24:14.866Z,78.00
2018-06-17T03:28:23.735Z,73.00
2018-06-17T03:32:32.270Z,71.40
2018-06-17T03:36:35.602Z,71.20
2018-06-17T03:40:38.932Z,71.70
2018-06-17T03:44:42.275Z,71.10
2018-06-17T03:48:45.629Z,72.30
2018-06-17T03:52:48.963Z,72.80
2018-06-17T03:56:52.286Z,72.00
2018-06-17T04:00:55.796Z,78.20
2018-06-17T04:05:04.660Z,74.60
2018-06-17T04:09:08.750Z,72.00
2018-06-17T04:13:12.108Z,72.40
2018-06-17T04:17:15.851Z,75.60
2018-06-17T04:21:19.249Z,72.20
2018-06-17T04:25:22.693Z,75.20
2018-06-17T04:29:25.999Z,77.20
2018-06-17T04:33:29.349Z,75.80
2018-06-17T04:37:32.780Z,78.10
2018-06-17T04:41:36.128Z,76.20
2018-06-17T04:45:39.472Z,76.50
2018-06-17T04:49:42.808Z,82.20
2018-06-17T04:53:46.159Z,74.30
2018-06-17T04:57:49.541Z,76.60
2018-06-17T05:01:52.862Z,79.60
2018-06-17T05:05:56.228Z,79.60
2018-06-17T05:09:59.552Z,77.20
2018-06-17T05:14:02.887Z,79.00
2018-06-17T05:18:06.280Z,81.20
2018-06-17T05:22:09.619Z,73.80
2018-06-17T05:26:12.950Z,81.20
2018-06-17T05:30:16.302Z,75.50
2018-06-17T05:34:19.688Z,73.60
2018-06-17T05:38:23.090Z,77.90
2018-06-17T05:46:29.492Z,76.70
2018-06-17T05:50:32.842Z,74.80
2018-06-17T05:54:36.179Z,75.40
2018-06-17T06:02:42.616Z,77.90
2018-06-17T06:06:45.948Z,80.80
2018-06-17T06:10:49.304Z,73.90
2018-06-17T06:14:52.635Z,76.30
2018-06-17T06:18:56.008Z,73.50
2018-06-17T06:22:59.323Z,74.60
2018-06-17T06:27:02.675Z,76.50
2018-06-17T06:31:06.107Z,75.70
2018-06-17T06:35:09.431Z,78.70
2018-06-17T06:39:12.775Z,74.10
2018-06-17T06:43:16.086Z,79.10
2018-06-17T06:47:19.615Z,79.50
2018-06-17T06:55:26.028Z,76.70
2018-06-17T07:03:43.748Z,77.10
2018-06-17T07:07:58.324Z,75.80
2018-06-17T07:12:01.724Z,75.80
2018-06-17T07:16:16.547Z,75.90
2018-06-17T07:20:19.903Z,77.00
2018-06-17T07:24:23.368Z,74.60
2018-06-17T07:29:08.292Z,76.50
2018-06-17T07:33:11.716Z,76.20
2018-06-17T07:37:15.126Z,75.80
2018-06-17T07:41:18.483Z,74.10
2018-06-17T07:45:21.819Z,73.40
2018-06-17T07:49:38.977Z,73.80
2018-06-17T07:53:42.327Z,73.30
2018-06-17T07:57:45.652Z,74.10
2018-06-17T08:01:49.101Z,73.90
2018-06-17T08:05:52.428Z,72.20
2018-06-17T08:09:55.792Z,74.60
2018-06-17T08:13:59.131Z,72.60
2018-06-17T08:18:02.489Z,73.20
2018-06-17T08:22:05.846Z,72.10
2018-06-17T08:26:09.148Z,72.00
2018-06-17T08:30:12.491Z,72.00
2018-06-17T08:34:15.844Z,72.20
2018-06-17T08:38:19.179Z,71.10
2018-06-17T08:42:22.550Z,71.70
2018-06-17T08:46:25.887Z,70.70
2018-06-17T08:50:29.240Z,70.60
2018-06-17T08:54:32.572Z,70.40
2018-06-17T08:58:35.975Z,70.80
2018-06-17T09:02:39.375Z,69.00
2018-06-17T09:06:42.727Z,69.80
2018-06-17T09:10:46.067Z,69.10
2018-06-17T09:14:49.727Z,69.30
2018-06-17T09:18:53.123Z,69.10
2018-06-17T09:22:56.455Z,68.90
2018-06-17T09:26:59.768Z,67.80
2018-06-17T09:31:03.125Z,67.90
2018-06-17T09:35:06.484Z,68.50
2018-06-17T09:39:10.395Z,68.50
2018-06-17T09:43:13.770Z,68.80
2018-06-17T09:47:17.130Z,67.60
2018-06-17T09:51:20.570Z,66.40
2018-06-17T09:55:23.895Z,67.70
2018-06-17T09:59:27.252Z,66.20
2018-06-17T10:03:30.576Z,67.90
2018-06-17T10:07:33.934Z,66.90
2018-06-17T10:11:37.259Z,66.00
2018-06-17T10:15:41.138Z,67.40
2018-06-17T10:19:44.855Z,66.90
2018-06-17T10:23:48.188Z,65.90
2018-06-17T10:27:51.545Z,64.10
2018-06-17T10:31:54.859Z,66.20
2018-06-17T10:35:58.412Z,66.80
2018-06-17T10:40:01.950Z,66.80
2018-06-17T10:44:05.288Z,63.90
2018-06-17T10:48:08.792Z,63.10
2018-06-17T10:52:12.104Z,64.30
2018-06-17T10:56:15.462Z,63.90
2018-06-17T11:00:18.904Z,65.70
2018-06-17T11:04:22.247Z,66.30
2018-06-17T11:08:25.576Z,63.20
2018-06-17T11:12:28.888Z,64.10
2018-06-17T11:16:32.247Z,64.70
2018-06-17T11:20:35.668Z,63.00
2018-06-17T11:24:38.999Z,62.90
2018-06-17T11:28:42.318Z,63.90
2018-06-17T11:32:45.656Z,63.70
2018-06-17T11:36:49.176Z,62.60
2018-06-17T11:40:52.507Z,64.30
2018-06-17T11:44:55.841Z,62.40
2018-06-17T11:48:59.171Z,63.90
2018-06-17T11:53:02.485Z,61.70
2018-06-17T11:57:05.841Z,62.30
2018-06-17T12:01:15.667Z,63.60
2018-06-17T12:05:18.994Z,63.10
2018-06-17T12:09:22.329Z,64.40
2018-06-17T12:13:25.635Z,63.30
2018-06-17T12:17:28.975Z,63.00
2018-06-17T12:21:32.455Z,63.40
2018-06-17T12:25:35.813Z,63.90
2018-06-17T12:29:39.146Z,62.50
2018-06-17T12:33:42.454Z,63.70
2018-06-17T12:37:45.784Z,63.50
2018-06-17T12:41:49.223Z,62.00
2018-06-17T12:45:52.565Z,64.00
2018-06-17T12:49:55.985Z,62.50
2018-06-17T12:53:59.339Z,63.40
2018-06-17T12:58:02.751Z,59.70
2018-06-17T13:02:06.149Z,62.20
2018-06-17T13:06:09.567Z,62.70
2018-06-17T13:10:12.923Z,63.50
2018-06-17T13:14:16.230Z,63.60
2018-06-17T13:18:19.825Z,63.50
2018-06-17T13:22:23.263Z,61.80
2018-06-17T13:26:26.659Z,60.40
2018-06-17T13:30:29.999Z,62.10
2018-06-17T13:34:33.349Z,62.50
2018-06-17T13:38:36.676Z,59.90
2018-06-17T13:42:40.066Z,62.70
2018-06-17T13:46:43.395Z,59.20
2018-06-17T13:50:46.733Z,60.50
2018-06-17T13:54:51.985Z,60.20
2018-06-17T13:58:55.374Z,60.70
2018-06-17T14:02:58.719Z,59.10
2018-06-17T14:07:03.164Z,61.30
2018-06-17T14:15:09.690Z,59.90
2018-06-17T14:19:13.031Z,60.40
2018-06-17T14:23:18.730Z,59.90
2018-06-17T14:27:23.298Z,59.50
2018-06-17T14:31:26.687Z,58.70
2018-06-17T14:35:30.492Z,59.20
2018-06-17T14:39:33.811Z,60.40
2018-06-17T14:43:42.445Z,60.30
2018-06-17T14:47:51.148Z,61.00
2018-06-17T14:52:00.039Z,60.80
2018-06-17T14:56:03.379Z,61.90
2018-06-17T15:00:06.742Z,61.80
2018-06-17T15:04:10.132Z,61.30
2018-06-17T15:08:13.508Z,60.00
2018-06-17T15:12:16.831Z,61.90
2018-06-17T15:16:20.188Z,61.50
2018-06-17T15:20:23.621Z,58.80
2018-06-17T15:24:33.720Z,60.30
2018-06-17T15:28:37.071Z,59.30
2018-06-17T15:32:45.895Z,62.00
2018-06-17T15:36:55.230Z,60.60
2018-06-17T15:41:03.890Z,60.70
2018-06-17T15:45:07.289Z,60.60
2018-06-17T15:49:11.851Z,59.70
2018-06-17T15:53:15.219Z,61.00
2018-06-17T15:57:18.609Z,60.90
2018-06-17T16:01:30.145Z,61.40
2018-06-17T16:05:34.467Z,60.50
2018-06-17T16:09:37.904Z,60.40
2018-06-17T16:13:46.482Z,59.90
2018-06-17T16:18:53.909Z,58.50
2018-06-17T16:22:57.320Z,60.80
2018-06-17T16:27:00.676Z,60.80
2018-06-17T16:31:04.031Z,60.90
2018-06-17T16:35:07.391Z,61.50
2018-06-17T16:39:12.291Z,58.50
2018-06-17T16:43:15.606Z,57.10
2018-06-17T16:47:18.958Z,59.30
2018-06-17T16:51:27.772Z,61.30
2018-06-17T16:55:36.407Z,58.80
2018-06-17T16:59:45.055Z,59.60
2018-06-17T17:03:48.408Z,60.80
2018-06-17T17:07:51.795Z,61.40
2018-06-17T17:11:55.220Z,59.80
2018-06-17T17:15:58.584Z,58.90
2018-06-17T17:20:01.927Z,58.40
2018-06-17T17:24:05.396Z,59.80
2018-06-17T17:28:08.789Z,60.10
2018-06-17T17:32:17.527Z,58.50
2018-06-17T17:36:26.092Z,59.50
2018-06-17T17:40:34.591Z,59.80
2018-06-17T17:44:43.255Z,59.70
2018-06-17T17:48:46.618Z,61.40
2018-06-17T17:52:50.007Z,61.40
2018-06-17T17:56:53.379Z,61.10
2018-06-17T18:00:56.734Z,60.30
2018-06-17T18:05:00.072Z,60.40
2018-06-17T18:09:04.628Z,60.90
2018-06-17T18:13:08.008Z,60.20
2018-06-17T18:17:12.805Z,61.80
2018-06-17T18:21:17.365Z,61.70
2018-06-17T18:25:26.504Z,61.40
2018-06-17T18:29:36.621Z,61.80
2018-06-17T18:33:45.703Z,61.80
2018-06-17T18:37:50.120Z,61.80
2018-06-17T18:41:54.585Z,60.50
2018-06-17T18:46:00.102Z,61.70
2018-06-17T18:50:04.572Z,61.90
2018-06-17T18:54:10.475Z,61.90
2018-06-17T18:58:14.931Z,62.00
2018-06-17T19:02:19.084Z,61.50
2018-06-17T19:06:22.831Z,62.10
2018-06-17T19:10:32.213Z,62.10
2018-06-17T19:14:41.953Z,62.40
2018-06-17T19:18:46.824Z,62.60
2018-06-17T19:22:52.104Z,62.60
2018-06-17T19:26:55.999Z,62.40
2018-06-17T19:31:00.667Z,62.70
2018-06-17T19:39:10.565Z,62.80
2018-06-17T19:47:18.662Z,62.90
2018-06-17T19:51:28.503Z,62.70
2018-06-17T19:55:37.899Z,63.00
2018-06-17T19:59:47.740Z,63.00
2018-06-17T20:03:52.865Z,63.00
2018-06-17T20:07:56.330Z,63.10
2018-06-17T20:11:59.684Z,63.40
2018-06-17T20:16:03.160Z,63.20
2018-06-17T20:20:06.630Z,63.20
2018-06-17T20:24:09.963Z,63.40
2018-06-17T20:28:13.268Z,63.50
2018-06-17T20:32:21.916Z,63.60
2018-06-17T20:40:40.988Z,63.60
2018-06-17T20:44:46.058Z,63.80
2018-06-17T20:52:55.459Z,63.90
2018-06-17T20:56:58.815Z,63.90
2018-06-17T21:01:02.157Z,63.90
2018-06-17T21:05:05.505Z,64.70
2018-06-17T21:09:10.716Z,64.00
2018-06-17T21:13:14.036Z,64.60
2018-06-17T21:17:18.528Z,64.30
2018-06-17T21:21:27.292Z,64.60
2018-06-17T21:26:37.487Z,64.70
2018-06-17T21:30:40.828Z,64.80
2018-06-17T21:34:44.142Z,65.30
2018-06-17T21:38:47.470Z,64.90
2018-06-17T21:42:50.806Z,65.00
2018-06-17T21:46:54.172Z,67.00
2018-06-17T21:50:57.505Z,65.10
2018-06-17T21:55:00.839Z,65.40
2018-06-17T21:59:04.255Z,65.80
2018-06-17T22:03:08.890Z,65.60
2018-06-17T22:07:13.490Z,65.90
2018-06-17T22:11:22.176Z,65.50
2018-06-17T22:15:30.951Z,66.00
2018-06-17T22:19:34.283Z,66.40
2018-06-17T22:23:37.630Z,65.60
2018-06-17T22:27:40.962Z,65.80
2018-06-17T22:31:44.340Z,65.80
2018-06-17T22:35:47.676Z,66.40
2018-06-17T22:39:50.991Z,65.70
2018-06-17T22:43:54.431Z,66.30
2018-06-17T22:47:57.783Z,66.30
2018-06-17T22:52:01.106Z,67.00
2018-06-17T22:56:08.668Z,66.40
2018-06-17T23:00:17.939Z,67.00
2018-06-17T23:04:26.684Z,67.70
2018-06-17T23:08:35.414Z,68.00
2018-06-17T23:12:39.204Z,67.00
2018-06-17T23:16:42.708Z,66.20
2018-06-17T23:20:46.059Z,67.60
2018-06-17T23:24:49.381Z,66.60
2018-06-17T23:28:52.696Z,67.50
2018-06-17T23:32:56.028Z,66.60
2018-06-17T23:36:59.360Z,68.40
2018-06-17T23:41:02.676Z,69.20
2018-06-17T23:45:06.008Z,67.00
2018-06-17T23:49:14.760Z,67.30
2018-06-17T23:53:23.527Z,67.40
2018-06-17T23:57:26.858Z,70.30
